createdAt,value
2019-05-17T00:02:19.083Z,10.46
2019-05-17T00:04:46.867Z,10.28
2019-05-17T00:07:12.102Z,10.55
2019-05-17T00:09:37.611Z,10.46
2019-05-17T00:12:03.116Z,10.37
2019-05-17T00:14:28.609Z,10.57
2019-05-17T00:16:54.027Z,10.80
2019-05-17T00:19:19.517Z,10.77
2019-05-17T00:21:47.326Z,10.56
2019-05-17T00:24:12.332Z,10.58
2019-05-17T00:26:39.783Z,10.26
2019-05-17T00:29:06.777Z,10.47
2019-05-17T00:31:32.472Z,10.55
2019-05-17T00:33:58.358Z,10.52
2019-05-17T00:36:37.647Z,10.39
2019-05-17T00:39:07.458Z,10.36
2019-05-17T00:41:32.606Z,10.46
2019-05-17T00:43:58.101Z,10.16
2019-05-17T00:46:23.610Z,10.25
2019-05-17T00:48:49.107Z,10.47
2019-05-17T00:51:16.542Z,10.41
2019-05-17T00:53:41.892Z,10.36
2019-05-17T00:56:07.391Z,10.27
2019-05-17T00:58:32.901Z,10.35
2019-05-17T01:00:58.712Z,10.55
2019-05-17T01:03:24.220Z,10.24
2019-05-17T01:05:49.710Z,10.26
2019-05-17T01:08:18.952Z,10.39
2019-05-17T01:10:44.512Z,10.34
2019-05-17T01:13:10.215Z,10.36
2019-05-17T01:15:36.944Z,9.91
2019-05-17T01:18:02.734Z,9.92
2019-05-17T01:20:30.303Z,9.98
2019-05-17T01:22:56.701Z,10.08
2019-05-17T01:25:22.362Z,10.34
2019-05-17T01:27:48.093Z,10.27
2019-05-17T01:30:17.263Z,10.25
2019-05-17T01:32:42.301Z,10.11
2019-05-17T01:35:08.547Z,10.15
2019-05-17T01:37:37.019Z,9.99
2019-05-17T01:40:02.789Z,10.02
2019-05-17T01:42:28.831Z,10.11
2019-05-17T01:44:56.626Z,10.25
2019-05-17T01:47:21.981Z,10.18
2019-05-17T01:49:47.468Z,10.23
2019-05-17T01:52:12.967Z,10.27
2019-05-17T01:54:38.478Z,10.10
2019-05-17T01:57:03.993Z,9.82
2019-05-17T01:59:29.707Z,9.96
2019-05-17T02:01:58.597Z,10.11
2019-05-17T02:04:24.068Z,9.93
2019-05-17T02:06:49.582Z,9.91
2019-05-17T02:09:32.212Z,9.79
2019-05-17T02:11:42.269Z,9.80
2019-05-17T02:14:07.735Z,9.96
2019-05-17T02:16:33.230Z,9.86
2019-05-17T02:18:58.735Z,10.26
2019-05-17T02:21:24.236Z,10.00
2019-05-17T02:23:49.610Z,9.99
2019-05-17T02:26:17.333Z,9.97
2019-05-17T02:28:42.512Z,9.90
2019-05-17T02:31:08.155Z,9.66
2019-05-17T02:33:34.484Z,9.96
2019-05-17T02:36:02.604Z,9.95
2019-05-17T02:38:27.140Z,9.86
2019-05-17T02:40:53.776Z,9.66
2019-05-17T02:43:19.299Z,9.55
2019-05-17T02:45:44.756Z,9.69
2019-05-17T02:48:13.147Z,9.91
2019-05-17T02:50:37.674Z,9.88
2019-05-17T02:53:04.386Z,9.71
2019-05-17T02:55:32.455Z,9.65
2019-05-17T02:58:03.050Z,9.63
2019-05-17T03:00:28.107Z,9.58
2019-05-17T03:02:53.860Z,9.81
2019-05-17T03:05:23.314Z,9.61
2019-05-17T03:07:48.085Z,9.57
2019-05-17T03:10:24.027Z,9.66
2019-05-17T03:12:44.554Z,9.79
2019-05-17T03:15:12.610Z,9.91
2019-05-17T03:17:36.092Z,9.75
2019-05-17T03:20:03.936Z,9.65
2019-05-17T03:22:28.663Z,9.63
2019-05-17T03:24:54.076Z,9.66
2019-05-17T03:27:19.526Z,9.67
2019-05-17T03:29:44.969Z,9.79
2019-05-17T03:32:16.705Z,9.47
2019-05-17T03:34:37.957Z,9.46
2019-05-17T03:37:06.589Z,9.61
2019-05-17T03:39:33.297Z,9.77
2019-05-17T03:41:57.979Z,9.71
2019-05-17T03:44:23.948Z,9.58
2019-05-17T03:46:49.492Z,9.77
2019-05-17T03:49:14.941Z,9.84
2019-05-17T03:51:42.624Z,9.60
2019-05-17T03:54:07.466Z,9.61
2019-05-17T03:56:33.212Z,9.52
2019-05-17T03:59:03.403Z,9.53
2019-05-17T04:01:27.037Z,9.48
2019-05-17T04:03:53.120Z,9.57
2019-05-17T04:06:18.675Z,9.81
2019-05-17T04:08:44.159Z,10.03
2019-05-17T04:11:22.367Z,9.96
2019-05-17T04:13:38.824Z,9.84
2019-05-17T04:16:08.960Z,9.58
2019-05-17T04:18:33.611Z,9.77
2019-05-17T04:20:59.252Z,9.77
2019-05-17T04:23:24.723Z,9.76
2019-05-17T04:25:53.095Z,9.72
2019-05-17T04:28:18.286Z,9.84
2019-05-17T04:30:44.364Z,9.91
2019-05-17T04:33:12.797Z,9.74
2019-05-17T04:35:36.935Z,9.84
2019-05-17T04:38:04.397Z,9.69
2019-05-17T04:40:29.532Z,9.64
2019-05-17T04:42:55.003Z,9.89
2019-05-17T04:45:22.992Z,9.86
2019-05-17T04:48:04.471Z,10.08
2019-05-17T04:50:33.261Z,9.75
2019-05-17T04:53:13.554Z,9.81
2019-05-17T04:55:42.848Z,9.67
2019-05-17T04:58:06.886Z,9.94
2019-05-17T05:00:33.992Z,10.02
2019-05-17T05:02:59.495Z,9.91
2019-05-17T05:05:25.021Z,9.81
2019-05-17T05:07:53.200Z,9.74
2019-05-17T05:10:17.698Z,9.68
2019-05-17T05:12:44.160Z,9.68
2019-05-17T05:15:12.188Z,9.80
2019-05-17T05:17:37.407Z,9.78
2019-05-17T05:20:03.171Z,9.94
2019-05-17T05:22:28.576Z,9.97
2019-05-17T05:24:54.033Z,9.95
2019-05-17T05:27:19.462Z,9.97
2019-05-17T05:29:44.913Z,10.07
2019-05-17T05:32:11.822Z,10.00
2019-05-17T05:34:37.810Z,9.93
2019-05-17T05:37:03.585Z,9.92
2019-05-17T05:39:28.983Z,9.92
2019-05-17T05:42:06.388Z,9.97
2019-05-17T05:44:21.884Z,9.96
2019-05-17T05:46:47.422Z,9.77
2019-05-17T05:49:12.863Z,9.83
2019-05-17T05:51:38.335Z,9.99
2019-05-17T05:54:03.795Z,9.87
2019-05-17T05:56:29.188Z,9.83
2019-05-17T05:58:54.658Z,9.99
2019-05-17T06:01:21.936Z,10.15
2019-05-17T06:03:47.233Z,9.95
2019-05-17T06:06:12.927Z,9.93
2019-05-17T06:08:38.373Z,10.04
2019-05-17T06:11:03.804Z,9.98
2019-05-17T06:13:29.255Z,9.96
2019-05-17T06:15:54.702Z,10.16
2019-05-17T06:18:22.478Z,10.15
2019-05-17T06:20:47.318Z,10.13
2019-05-17T06:23:12.839Z,10.18
2019-05-17T06:25:38.131Z,10.26
2019-05-17T06:28:03.539Z,10.30
2019-05-17T06:30:28.998Z,10.36
2019-05-17T06:32:54.479Z,10.32
2019-05-17T06:35:21.758Z,10.29
2019-05-17T06:37:47.379Z,10.30
2019-05-17T06:40:13.424Z,10.34
2019-05-17T06:42:42.520Z,10.27
2019-05-17T06:45:06.869Z,10.28
2019-05-17T06:47:32.873Z,10.37
2019-05-17T06:49:58.502Z,10.33
2019-05-17T06:52:23.854Z,10.50
2019-05-17T06:54:49.439Z,10.53
2019-05-17T06:57:14.905Z,10.65
2019-05-17T06:59:40.361Z,10.71
2019-05-17T07:02:05.800Z,10.70
2019-05-17T07:04:31.240Z,10.46
2019-05-17T07:07:20.738Z,10.68
2019-05-17T07:09:50.546Z,10.66
2019-05-17T07:12:21.342Z,10.70
2019-05-17T07:14:47.379Z,10.56
2019-05-17T07:17:13.114Z,10.61
2019-05-17T07:19:40.051Z,10.63
2019-05-17T07:22:05.933Z,10.64
2019-05-17T07:24:33.411Z,10.51
2019-05-17T07:27:00.046Z,10.58
2019-05-17T07:29:26.118Z,10.60
2019-05-17T07:31:51.663Z,10.54
2019-05-17T07:34:19.840Z,10.62
2019-05-17T07:36:47.368Z,10.55
2019-05-17T07:39:13.308Z,10.58
2019-05-17T07:41:40.082Z,10.61
2019-05-17T07:44:05.910Z,10.76
2019-05-17T07:46:31.927Z,10.76
2019-05-17T07:48:57.216Z,10.73
2019-05-17T07:51:22.688Z,10.83
2019-05-17T07:53:49.510Z,10.78
2019-05-17T07:56:15.047Z,10.75
2019-05-17T07:58:40.578Z,10.72
2019-05-17T08:01:06.088Z,10.88
2019-05-17T08:03:31.571Z,10.86
2019-05-17T08:05:59.786Z,10.95
2019-05-17T08:08:24.330Z,10.99
2019-05-17T08:10:50.925Z,11.02
2019-05-17T08:13:29.107Z,11.10
2019-05-17T08:15:44.429Z,10.90
2019-05-17T08:18:10.755Z,11.03
2019-05-17T08:20:36.692Z,10.96
2019-05-17T08:23:05.070Z,11.08
2019-05-17T08:25:30.497Z,11.13
2019-05-17T08:27:56.333Z,11.29
2019-05-17T08:30:22.333Z,11.21
2019-05-17T08:32:50.403Z,11.06
2019-05-17T08:35:15.256Z,11.00
2019-05-17T08:37:42.233Z,11.04
2019-05-17T08:40:10.620Z,11.21
2019-05-17T08:42:35.536Z,11.10
2019-05-17T08:45:01.428Z,11.27
2019-05-17T08:47:26.923Z,11.25
2019-05-17T08:49:52.365Z,11.06
2019-05-17T08:52:20.015Z,11.10
2019-05-17T08:54:45.684Z,11.14
2019-05-17T08:57:11.162Z,11.18
2019-05-17T08:59:36.814Z,11.04
2019-05-17T09:02:02.263Z,11.07
2019-05-17T09:04:29.735Z,11.14
2019-05-17T09:06:55.319Z,11.08
2019-05-17T09:09:20.769Z,11.26
2019-05-17T09:11:46.248Z,11.18
2019-05-17T09:14:11.686Z,11.26
2019-05-17T09:16:39.925Z,11.23
2019-05-17T09:19:04.594Z,11.24
2019-05-17T09:21:31.744Z,11.23
2019-05-17T09:23:59.560Z,11.12
2019-05-17T09:26:24.461Z,11.15
2019-05-17T09:28:55.219Z,11.36
2019-05-17T09:31:20.682Z,11.22
2019-05-17T09:33:46.152Z,11.21
2019-05-17T09:36:11.595Z,11.13
2019-05-17T09:38:37.104Z,11.22
2019-05-17T09:41:02.558Z,11.30
2019-05-17T09:43:29.507Z,11.24
2019-05-17T09:45:55.029Z,11.23
2019-05-17T09:48:20.480Z,11.42
2019-05-17T09:50:45.926Z,11.43
2019-05-17T09:53:11.300Z,11.41
2019-05-17T09:55:36.729Z,11.39
2019-05-17T09:58:02.188Z,11.51
2019-05-17T10:00:29.681Z,11.50
2019-05-17T10:02:55.261Z,11.59
2019-05-17T10:05:20.637Z,11.43
2019-05-17T10:07:46.245Z,11.41
2019-05-17T10:10:11.888Z,11.57
2019-05-17T10:12:37.252Z,11.57
2019-05-17T10:15:02.787Z,11.55
2019-05-17T10:17:29.412Z,11.64
2019-05-17T10:19:55.184Z,11.61
2019-05-17T10:22:20.658Z,11.50
2019-05-17T10:24:46.107Z,11.52
2019-05-17T10:27:14.489Z,11.53
2019-05-17T10:29:39.485Z,11.57
2019-05-17T10:32:05.208Z,11.54
2019-05-17T10:34:32.740Z,11.56
2019-05-17T10:36:58.028Z,11.51
2019-05-17T10:39:23.395Z,11.63
2019-05-17T10:41:50.072Z,11.65
2019-05-17T10:44:15.925Z,11.62
2019-05-17T10:46:41.373Z,11.65
2019-05-17T10:49:12.961Z,11.69
2019-05-17T10:51:40.254Z,11.70
2019-05-17T10:54:05.578Z,11.67
2019-05-17T10:56:31.019Z,11.75
2019-05-17T10:58:56.403Z,11.80
2019-05-17T11:01:21.867Z,11.64
2019-05-17T11:03:47.296Z,11.73
2019-05-17T11:06:13.015Z,11.87
2019-05-17T11:08:38.437Z,11.90
2019-05-17T11:11:03.880Z,11.79
2019-05-17T11:13:29.239Z,11.78
2019-05-17T11:15:54.701Z,11.72
2019-05-17T11:18:20.171Z,11.70
2019-05-17T11:20:45.648Z,11.49
2019-05-17T11:23:11.112Z,11.64
2019-05-17T11:25:36.577Z,11.61
2019-05-17T11:28:02.248Z,11.50
2019-05-17T11:30:27.701Z,11.42
2019-05-17T11:32:53.096Z,11.46
2019-05-17T11:35:18.700Z,11.29
2019-05-17T11:37:44.143Z,11.39
2019-05-17T11:40:12.720Z,11.45
2019-05-17T11:42:38.231Z,11.54
2019-05-17T11:45:04.616Z,11.53
2019-05-17T11:47:30.070Z,11.56
2019-05-17T11:49:55.510Z,11.69
2019-05-17T11:52:22.165Z,11.68
2019-05-17T11:54:47.589Z,11.76
2019-05-17T11:57:12.906Z,11.71
2019-05-17T11:59:38.346Z,11.72
2019-05-17T12:02:03.816Z,11.86
2019-05-17T12:04:29.263Z,11.86
2019-05-17T12:06:54.707Z,11.84
2019-05-17T12:09:20.090Z,11.97
2019-05-17T12:11:45.813Z,11.86
2019-05-17T12:14:11.458Z,11.92
2019-05-17T12:16:37.540Z,11.94
2019-05-17T12:19:02.845Z,12.01
2019-05-17T12:21:28.598Z,11.85
2019-05-17T12:23:54.139Z,11.92
2019-05-17T12:26:19.639Z,11.91
2019-05-17T12:28:45.169Z,11.84
2019-05-17T12:31:11.167Z,11.92
2019-05-17T12:33:40.948Z,11.99
2019-05-17T12:36:07.523Z,12.09
2019-05-17T12:38:32.999Z,12.01
2019-05-17T12:40:58.474Z,11.98
2019-05-17T12:43:23.839Z,12.05
2019-05-17T12:46:00.083Z,12.11
2019-05-17T12:48:16.455Z,12.11
2019-05-17T12:50:42.159Z,11.94
2019-05-17T12:53:07.608Z,11.97
2019-05-17T12:55:33.080Z,11.96
2019-05-17T12:57:58.824Z,12.09
2019-05-17T13:00:24.719Z,12.00
2019-05-17T13:02:50.103Z,12.05
2019-05-17T13:05:17.591Z,12.08
2019-05-17T13:07:43.035Z,11.97
2019-05-17T13:10:09.665Z,11.83
2019-05-17T13:12:35.103Z,11.80
2019-05-17T13:15:00.730Z,11.94
2019-05-17T13:17:26.167Z,11.98
2019-05-17T13:19:51.608Z,11.89
2019-05-17T13:22:17.354Z,11.97
2019-05-17T13:24:42.836Z,12.01
2019-05-17T13:27:11.417Z,12.00
2019-05-17T13:29:37.499Z,12.06
2019-05-17T13:32:02.993Z,11.93
2019-05-17T13:34:52.983Z,11.95
2019-05-17T13:37:18.579Z,12.03
2019-05-17T13:39:44.828Z,11.77
2019-05-17T13:42:10.347Z,11.87
2019-05-17T13:44:35.792Z,11.94
2019-05-17T13:47:01.245Z,12.01
2019-05-17T13:49:26.651Z,11.95
2019-05-17T13:51:58.234Z,11.78
2019-05-17T13:54:23.685Z,11.70
2019-05-17T13:56:49.156Z,11.78
2019-05-17T13:59:14.647Z,12.03
2019-05-17T14:01:40.081Z,12.22
2019-05-17T14:04:05.574Z,12.23
2019-05-17T14:06:31.013Z,12.13
2019-05-17T14:08:56.418Z,12.35
2019-05-17T14:11:21.954Z,12.13
2019-05-17T14:13:47.427Z,12.05
2019-05-17T14:16:12.926Z,12.06
2019-05-17T14:18:38.423Z,12.02
2019-05-17T14:21:03.868Z,12.11
2019-05-17T14:23:29.384Z,11.80
2019-05-17T14:25:54.843Z,12.08
2019-05-17T14:28:20.414Z,12.13
2019-05-17T14:30:45.865Z,12.08
2019-05-17T14:33:11.923Z,12.03
2019-05-17T14:35:37.379Z,12.32
2019-05-17T14:38:21.111Z,12.24
2019-05-17T14:41:05.885Z,12.19
2019-05-17T14:43:16.102Z,12.12
2019-05-17T14:45:41.825Z,12.39
2019-05-17T14:48:08.315Z,12.23
2019-05-17T14:50:33.784Z,12.20
2019-05-17T14:53:00.611Z,12.18
2019-05-17T14:55:26.109Z,12.12
2019-05-17T14:57:51.613Z,12.16
2019-05-17T15:00:17.335Z,12.46
2019-05-17T15:02:42.789Z,12.33
2019-05-17T15:05:20.710Z,12.37
2019-05-17T15:07:47.244Z,12.32
2019-05-17T15:10:12.824Z,12.37
2019-05-17T15:12:38.542Z,12.39
2019-05-17T15:15:08.081Z,12.42
2019-05-17T15:17:35.101Z,12.56
2019-05-17T15:20:00.824Z,12.50
2019-05-17T15:22:26.411Z,12.42
2019-05-17T15:24:51.923Z,12.43
2019-05-17T15:27:18.741Z,12.59
2019-05-17T15:29:44.401Z,12.47
2019-05-17T15:32:10.036Z,12.45
2019-05-17T15:34:35.573Z,12.49
2019-05-17T15:37:01.322Z,12.60
2019-05-17T15:39:26.801Z,12.59
2019-05-17T15:41:59.441Z,12.67
2019-05-17T15:44:27.058Z,12.70
2019-05-17T15:46:53.569Z,12.72
2019-05-17T15:49:18.983Z,12.55
2019-05-17T15:51:44.375Z,12.70
2019-05-17T15:54:17.178Z,12.44
2019-05-17T15:56:43.090Z,12.42
2019-05-17T15:59:08.803Z,12.54
2019-05-17T16:01:34.458Z,12.48
2019-05-17T16:03:59.981Z,12.48
2019-05-17T16:06:25.349Z,12.42
2019-05-17T16:08:51.061Z,12.46
2019-05-17T16:11:25.433Z,12.58
2019-05-17T16:13:50.923Z,12.62
2019-05-17T16:16:16.362Z,12.63
2019-05-17T16:18:41.934Z,12.62
2019-05-17T16:21:07.385Z,12.74
2019-05-17T16:23:32.822Z,12.85
2019-05-17T16:25:58.379Z,12.81
2019-05-17T16:28:23.941Z,12.75
2019-05-17T16:30:49.396Z,12.75
2019-05-17T16:33:14.864Z,12.83
2019-05-17T16:35:42.477Z,12.83
2019-05-17T16:38:07.961Z,12.82
2019-05-17T16:40:33.668Z,12.58
2019-05-17T16:42:59.511Z,12.72
2019-05-17T16:45:26.001Z,12.91
2019-05-17T16:47:51.798Z,12.82
2019-05-17T16:50:26.305Z,12.90
2019-05-17T16:53:04.948Z,12.93
2019-05-17T16:55:19.702Z,12.87
2019-05-17T16:57:45.352Z,12.98
2019-05-17T17:00:44.276Z,13.03
2019-05-17T17:03:09.790Z,13.08
2019-05-17T17:05:35.642Z,13.11
2019-05-17T17:08:01.106Z,13.12
2019-05-17T17:10:26.578Z,12.98
2019-05-17T17:12:52.379Z,12.91
2019-05-17T17:15:18.044Z,13.00
2019-05-17T17:17:43.589Z,13.05
2019-05-17T17:20:09.545Z,13.12
2019-05-17T17:22:35.033Z,13.05
2019-05-17T17:25:00.551Z,13.13
2019-05-17T17:27:25.972Z,13.23
2019-05-17T17:29:52.046Z,13.09
2019-05-17T17:32:21.632Z,13.19
2019-05-17T17:34:44.971Z,13.25
2019-05-17T17:37:10.419Z,13.34
2019-05-17T17:39:36.438Z,13.23
2019-05-17T17:42:02.695Z,13.32
2019-05-17T17:44:28.222Z,13.21
2019-05-17T17:46:54.027Z,13.28
2019-05-17T17:49:19.483Z,13.47
2019-05-17T17:51:44.876Z,13.49
2019-05-17T17:54:10.325Z,13.42
2019-05-17T17:56:35.768Z,13.41
2019-05-17T17:59:01.296Z,13.43
2019-05-17T18:01:26.792Z,13.43
2019-05-17T18:03:52.244Z,13.43
2019-05-17T18:06:17.722Z,13.43
2019-05-17T18:08:43.718Z,13.36
2019-05-17T18:11:09.195Z,13.39
2019-05-17T18:13:34.577Z,13.31
2019-05-17T18:16:00.156Z,13.31
2019-05-17T18:18:25.597Z,13.31
2019-05-17T18:20:51.227Z,13.29
2019-05-17T18:23:22.541Z,13.29
2019-05-17T18:25:44.448Z,13.32
2019-05-17T18:28:10.911Z,13.21
2019-05-17T18:30:36.660Z,13.31
2019-05-17T18:33:02.195Z,13.32
2019-05-17T18:35:51.890Z,13.32
2019-05-17T18:38:22.317Z,13.42
2019-05-17T18:40:47.828Z,13.42
2019-05-17T18:43:13.419Z,13.35
2019-05-17T18:45:44.247Z,13.34
2019-05-17T18:48:09.647Z,13.34
2019-05-17T18:50:35.763Z,13.38
2019-05-17T18:53:01.346Z,13.28
2019-05-17T18:55:26.935Z,13.29
2019-05-17T18:57:52.540Z,13.33
2019-05-17T19:00:18.837Z,13.41
2019-05-17T19:02:44.379Z,13.42
2019-05-17T19:05:10.137Z,13.45
2019-05-17T19:07:35.610Z,13.48
2019-05-17T19:10:01.072Z,13.48
2019-05-17T19:12:27.028Z,13.33
2019-05-17T19:14:52.479Z,13.43
2019-05-17T19:17:17.966Z,13.39
2019-05-17T19:19:43.406Z,13.50
2019-05-17T19:22:09.256Z,13.52
2019-05-17T19:24:34.728Z,13.24
2019-05-17T19:27:00.460Z,13.20
2019-05-17T19:29:27.032Z,13.20
2019-05-17T19:31:52.755Z,13.19
2019-05-17T19:34:24.416Z,13.15
2019-05-17T19:36:49.975Z,13.30
2019-05-17T19:39:15.382Z,13.31
2019-05-17T19:41:41.105Z,13.34
2019-05-17T19:44:06.879Z,13.28
2019-05-17T19:46:32.851Z,13.30
2019-05-17T19:48:58.342Z,13.32
2019-05-17T19:51:23.790Z,13.39
2019-05-17T19:53:49.550Z,13.26
2019-05-17T19:56:15.027Z,13.34
2019-05-17T19:58:40.471Z,13.49
2019-05-17T20:01:06.288Z,13.34
2019-05-17T20:03:31.699Z,13.18
2019-05-17T20:05:57.091Z,13.17
2019-05-17T20:08:22.534Z,13.10
2019-05-17T20:10:51.596Z,13.12
2019-05-17T20:13:15.452Z,13.18
2019-05-17T20:15:41.405Z,13.08
2019-05-17T20:18:06.866Z,13.12
2019-05-17T20:20:32.414Z,13.02
2019-05-17T20:22:57.953Z,13.10
2019-05-17T20:25:24.913Z,13.11
2019-05-17T20:27:50.381Z,13.17
2019-05-17T20:30:16.855Z,13.17
2019-05-17T20:32:42.619Z,13.13
2019-05-17T20:35:08.653Z,13.10
2019-05-17T20:37:34.143Z,13.08
2019-05-17T20:39:59.976Z,13.08
2019-05-17T20:42:25.423Z,13.10
2019-05-17T20:44:50.908Z,13.00
2019-05-17T20:47:16.430Z,13.13
2019-05-17T20:49:41.920Z,13.16
2019-05-17T20:52:09.686Z,13.08
2019-05-17T20:54:35.859Z,13.09
2019-05-17T20:57:01.915Z,13.00
2019-05-17T20:59:28.240Z,13.00
2019-05-17T21:01:56.478Z,12.95
2019-05-17T21:04:22.645Z,12.97
2019-05-17T21:06:48.306Z,12.93
2019-05-17T21:09:14.346Z,12.93
2019-05-17T21:11:41.075Z,12.91
2019-05-17T21:14:07.994Z,12.99
2019-05-17T21:16:34.308Z,12.99
2019-05-17T21:19:00.473Z,12.89
2019-05-17T21:21:26.802Z,12.83
2019-05-17T21:23:52.543Z,12.98
2019-05-17T21:26:18.237Z,12.93
2019-05-17T21:28:47.092Z,12.95
2019-05-17T21:31:11.541Z,12.90
2019-05-17T21:33:37.958Z,12.89
2019-05-17T21:36:04.379Z,12.93
2019-05-17T21:38:31.246Z,12.89
2019-05-17T21:40:59.936Z,12.97
2019-05-17T21:43:26.478Z,12.94
2019-05-17T21:46:03.242Z,12.94
2019-05-17T21:48:24.391Z,12.91
2019-05-17T21:50:50.824Z,12.90
2019-05-17T21:53:21.832Z,12.84
2019-05-17T21:55:47.636Z,12.78
2019-05-17T21:58:13.442Z,12.76
2019-05-17T22:01:18.094Z,12.85
2019-05-17T22:03:44.009Z,12.88
2019-05-17T22:06:10.152Z,12.72
2019-05-17T22:08:35.755Z,12.68
2019-05-17T22:11:01.974Z,12.67
2019-05-17T22:13:27.487Z,12.73
2019-05-17T22:15:56.278Z,12.76
2019-05-17T22:18:22.433Z,12.74
2019-05-17T22:20:48.019Z,12.72
2019-05-17T22:23:13.567Z,12.75
2019-05-17T22:25:39.176Z,12.65
2019-05-17T22:28:04.780Z,12.67
2019-05-17T22:30:30.326Z,12.64
2019-05-17T22:32:55.911Z,12.64
2019-05-17T22:35:21.459Z,12.62
2019-05-17T22:37:47.097Z,12.59
2019-05-17T22:40:12.816Z,12.55
2019-05-17T22:42:57.209Z,12.61
2019-05-17T22:45:22.735Z,12.44
2019-05-17T22:47:48.294Z,12.47
2019-05-17T22:50:13.941Z,12.56
2019-05-17T22:52:41.522Z,12.44
2019-05-17T22:55:07.277Z,12.41
2019-05-17T22:57:32.889Z,12.51
2019-05-17T22:59:58.455Z,12.40
2019-05-17T23:02:24.514Z,12.37
2019-05-17T23:04:49.997Z,12.25
2019-05-17T23:07:16.641Z,12.26
2019-05-17T23:09:42.106Z,12.24
2019-05-17T23:12:07.477Z,12.31
2019-05-17T23:14:34.104Z,12.29
2019-05-17T23:16:59.772Z,12.29
2019-05-17T23:19:25.525Z,12.20
2019-05-17T23:21:52.099Z,12.22
2019-05-17T23:24:17.599Z,12.24
2019-05-17T23:26:43.536Z,12.19
2019-05-17T23:29:09.371Z,12.14
2019-05-17T23:31:34.915Z,12.13
2019-05-17T23:34:00.808Z,11.97
2019-05-17T23:36:26.991Z,12.09
2019-05-17T23:38:52.387Z,12.14
2019-05-17T23:41:17.829Z,12.06
2019-05-17T23:43:43.688Z,12.12
2019-05-17T23:46:09.586Z,12.12
2019-05-17T23:48:35.685Z,12.11
2019-05-17T23:51:01.894Z,12.13
2019-05-17T23:53:27.776Z,12.16
2019-05-17T23:55:54.403Z,12.19
2019-05-17T23:58:20.137Z,12.06
